createdAt,value
2019-04-20T00:00:14.510Z,12.50
2019-04-20T00:03:01.364Z,12.00
2019-04-20T00:05:45.533Z,11.87
2019-04-20T00:08:29.582Z,11.70
2019-04-20T00:11:25.421Z,12.17
2019-04-20T00:14:12.051Z,12.10
2019-04-20T00:16:52.679Z,12.43
2019-04-20T00:19:42.502Z,12.10
2019-04-20T00:22:24.673Z,13.00
2019-04-20T00:25:25.479Z,12.23
2019-04-20T00:28:33.352Z,12.13
2019-04-20T00:31:12.431Z,13.03
2019-04-20T00:33:52.759Z,12.40
2019-04-20T00:39:34.041Z,12.33
2019-04-20T00:42:16.240Z,12.70
2019-04-20T00:45:01.061Z,12.43
2019-04-20T00:47:45.385Z,12.70
2019-04-20T00:50:34.301Z,12.43
2019-04-20T00:53:11.432Z,12.27
2019-04-20T00:55:40.170Z,12.37
2019-04-20T00:58:28.033Z,13.13
2019-04-20T01:01:20.304Z,13.57
2019-04-20T01:04:05.522Z,13.03
2019-04-20T01:06:51.156Z,12.70
2019-04-20T01:09:22.350Z,13.17
2019-04-20T01:12:04.673Z,13.53
2019-04-20T01:14:53.511Z,12.07
2019-04-20T01:17:26.091Z,12.83
2019-04-20T01:20:06.448Z,13.20
2019-04-20T01:22:53.861Z,13.33
2019-04-20T01:26:22.508Z,13.10
2019-04-20T01:30:02.277Z,12.77
2019-04-20T01:32:45.365Z,13.67
2019-04-20T01:39:50.221Z,13.37
2019-04-20T01:42:15.105Z,13.30
2019-04-20T01:44:47.309Z,13.67
2019-04-20T01:47:15.041Z,13.53
2019-04-20T01:49:54.670Z,14.00
2019-04-20T01:52:26.990Z,12.93
2019-04-20T01:55:24.495Z,14.00
2019-04-20T01:57:56.291Z,13.37
2019-04-20T02:00:36.933Z,14.33
2019-04-20T02:03:24.047Z,13.80
2019-04-20T02:05:57.815Z,13.57
2019-04-20T02:08:24.310Z,13.07
2019-04-20T02:10:55.891Z,13.80
2019-04-20T02:13:21.542Z,13.83
2019-04-20T02:15:55.402Z,13.87
2019-04-20T02:18:31.842Z,13.70
2019-04-20T02:21:09.662Z,13.57
2019-04-20T02:23:34.771Z,14.10
2019-04-20T02:25:52.248Z,14.03
2019-04-20T02:28:37.411Z,14.43
2019-04-20T02:33:59.220Z,13.50
2019-04-20T02:36:47.864Z,13.77
2019-04-20T02:46:56.003Z,14.60
2019-04-20T02:49:36.177Z,14.40
2019-04-20T02:51:52.413Z,14.37
2019-04-20T02:54:26.646Z,14.67
2019-04-20T02:57:12.212Z,14.97
2019-04-20T03:01:45.477Z,14.83
2019-04-20T03:03:59.781Z,14.60
2019-04-20T03:06:36.120Z,15.13
2019-04-20T03:09:23.390Z,15.13
2019-04-20T03:11:56.453Z,15.30
2019-04-20T03:14:14.928Z,14.83
2019-04-20T03:16:45.841Z,14.70
2019-04-20T03:19:11.741Z,14.60
2019-04-20T03:21:52.659Z,15.77
2019-04-20T03:24:27.726Z,15.60
2019-04-20T03:26:55.769Z,15.30
2019-04-20T03:29:52.681Z,15.30
2019-04-20T03:35:08.146Z,17.33
2019-04-20T03:37:33.149Z,18.77
2019-04-20T03:39:52.638Z,17.53
2019-04-20T03:42:11.126Z,16.50
2019-04-20T03:44:50.055Z,15.10
2019-04-20T03:47:17.366Z,15.80
2019-04-20T03:50:06.217Z,16.53
2019-04-20T03:52:54.258Z,15.40
2019-04-20T03:55:40.919Z,15.73
2019-04-20T03:58:24.183Z,15.80
2019-04-20T04:01:23.392Z,16.20
2019-04-20T04:03:56.079Z,16.87
2019-04-20T04:06:15.910Z,17.57
2019-04-20T04:08:41.263Z,18.00
2019-04-20T04:11:23.124Z,16.40
2019-04-20T04:13:37.774Z,16.73
2019-04-20T04:16:10.020Z,15.90
2019-04-20T04:18:40.791Z,15.07
2019-04-20T04:21:12.874Z,14.70
2019-04-20T04:23:55.856Z,15.47
2019-04-20T04:26:27.059Z,16.03
2019-04-20T04:28:53.778Z,15.73
2019-04-20T04:31:30.748Z,15.77
2019-04-20T04:33:59.401Z,16.03
2019-04-20T04:36:21.096Z,16.50
2019-04-20T04:39:03.808Z,17.53
2019-04-20T04:41:42.082Z,17.10
2019-04-20T04:44:00.162Z,17.03
2019-04-20T04:46:12.371Z,15.73
2019-04-20T04:48:45.984Z,14.53
2019-04-20T04:51:17.657Z,15.20
2019-04-20T04:53:52.959Z,14.57
2019-04-20T04:56:17.024Z,12.83
2019-04-20T04:58:42.762Z,11.90
2019-04-20T05:01:18.368Z,12.67
2019-04-20T05:04:05.577Z,12.23
2019-04-20T05:06:32.061Z,12.40
2019-04-20T05:08:51.443Z,12.03
2019-04-20T05:11:17.318Z,12.13
2019-04-20T05:13:52.845Z,13.23
2019-04-20T05:16:38.023Z,11.97
2019-04-20T05:19:10.472Z,10.83
2019-04-20T05:21:58.666Z,11.07
2019-04-20T05:24:29.267Z,11.03
2019-04-20T05:27:26.096Z,9.70
2019-04-20T05:29:39.368Z,10.30
2019-04-20T05:32:14.178Z,10.47
2019-04-20T05:35:02.471Z,10.10
2019-04-20T05:37:37.110Z,10.70
2019-04-20T05:40:00.349Z,10.93
2019-04-20T05:42:30.190Z,10.23
2019-04-20T05:44:55.968Z,10.33
2019-04-20T05:47:29.098Z,11.27
2019-04-20T05:49:56.181Z,10.50
2019-04-20T05:52:49.155Z,11.60
2019-04-20T05:55:07.424Z,10.87
2019-04-20T05:57:53.560Z,11.20
2019-04-20T06:00:20.236Z,10.40
2019-04-20T06:02:33.274Z,11.10
2019-04-20T06:07:37.413Z,10.80
2019-04-20T06:10:05.905Z,10.90
2019-04-20T06:12:37.340Z,11.33
2019-04-20T06:15:19.722Z,11.03
2019-04-20T06:18:13.323Z,11.43
2019-04-20T06:21:02.399Z,10.67
2019-04-20T06:23:54.620Z,11.67
2019-04-20T06:26:33.618Z,11.63
2019-04-20T06:28:41.532Z,11.70
2019-04-20T06:31:18.075Z,11.93
2019-04-20T06:37:05.756Z,13.13
2019-04-20T06:39:30.936Z,13.10
2019-04-20T06:49:33.224Z,12.97
2019-04-20T06:54:58.136Z,11.90
2019-04-20T06:57:34.613Z,12.90
2019-04-20T07:00:10.194Z,12.40
2019-04-20T07:02:41.218Z,12.27
2019-04-20T07:05:27.409Z,16.77
2019-04-20T07:07:36.058Z,12.43
2019-04-20T07:10:13.274Z,17.00
2019-04-20T07:12:37.921Z,13.27
2019-04-20T07:14:58.932Z,14.20
2019-04-20T07:20:19.454Z,10.63
2019-04-20T07:23:09.387Z,10.53
2019-04-20T07:25:34.271Z,10.17
2019-04-20T07:28:03.046Z,9.90
2019-04-20T07:30:29.616Z,9.30
2019-04-20T07:32:58.445Z,11.17
2019-04-20T07:35:30.354Z,9.73
2019-04-20T07:38:16.807Z,8.97
2019-04-20T07:40:29.128Z,7.87
2019-04-20T07:43:01.611Z,7.17
2019-04-20T07:50:25.216Z,7.37
2019-04-20T07:52:54.426Z,8.00
2019-04-20T07:57:58.075Z,7.03
2019-04-20T08:00:48.598Z,6.60
2019-04-20T08:05:55.169Z,6.65
2019-04-20T08:08:34.825Z,6.80
2019-04-20T08:11:09.752Z,6.57
2019-04-20T08:16:06.343Z,7.03
2019-04-20T08:18:40.230Z,7.25
2019-04-20T08:21:09.628Z,7.47
2019-04-20T08:23:38.618Z,9.33
2019-04-20T08:26:00.369Z,7.28
2019-04-20T08:28:42.353Z,7.30
2019-04-20T08:31:39.177Z,7.10
2019-04-20T08:34:24.309Z,7.35
2019-04-20T08:36:47.746Z,7.15
2019-04-20T08:39:32.414Z,6.85
2019-04-20T08:41:53.540Z,6.28
2019-04-20T08:44:41.411Z,6.45
2019-04-20T08:47:01.832Z,7.00
2019-04-20T08:49:27.266Z,6.40
2019-04-20T08:52:05.894Z,5.97
2019-04-20T08:54:21.733Z,6.47
2019-04-20T08:56:41.512Z,6.33
2019-04-20T08:59:04.618Z,6.50
2019-04-20T09:01:35.745Z,6.30
2019-04-20T09:04:11.297Z,6.58
2019-04-20T09:06:50.715Z,5.92
2019-04-20T09:09:42.504Z,6.05
2019-04-20T09:11:54.260Z,5.72
2019-04-20T09:14:21.543Z,5.60
2019-04-20T09:17:03.754Z,5.33
2019-04-20T09:19:36.763Z,5.10
2019-04-20T09:22:32.310Z,5.53
2019-04-20T09:25:16.083Z,5.87
2019-04-20T09:27:28.985Z,5.70
2019-04-20T09:30:07.801Z,5.10
2019-04-20T09:32:39.606Z,5.20
2019-04-20T09:35:13.545Z,4.83
2019-04-20T09:37:44.696Z,4.62
2019-04-20T09:40:20.208Z,7.28
2019-04-20T09:42:56.141Z,5.28
2019-04-20T09:45:47.313Z,4.78
2019-04-20T09:48:19.945Z,4.70
2019-04-20T09:51:08.143Z,6.12
2019-04-20T09:53:28.559Z,5.42
2019-04-20T09:56:01.637Z,5.17
2019-04-20T09:58:25.760Z,4.83
2019-04-20T10:00:58.235Z,4.83
2019-04-20T10:03:16.495Z,5.22
2019-04-20T10:05:45.464Z,5.55
2019-04-20T10:08:13.890Z,5.10
2019-04-20T10:10:45.394Z,5.62
2019-04-20T10:13:13.281Z,5.28
2019-04-20T10:15:41.750Z,5.45
2019-04-20T10:18:10.112Z,6.30
2019-04-20T10:20:41.503Z,4.35
2019-04-20T10:23:09.343Z,3.85
2019-04-20T10:25:38.449Z,4.30
2019-04-20T10:28:07.667Z,4.35
2019-04-20T10:30:36.728Z,4.20
2019-04-20T10:33:05.797Z,4.25
2019-04-20T10:35:35.828Z,3.92
2019-04-20T10:38:09.593Z,4.40
2019-04-20T10:40:50.965Z,3.90
2019-04-20T10:43:10.199Z,4.00
2019-04-20T10:45:39.243Z,3.50
2019-04-20T10:48:08.958Z,3.77
2019-04-20T10:50:38.865Z,3.90
2019-04-20T10:53:07.919Z,3.70
2019-04-20T10:55:37.650Z,4.70
2019-04-20T10:58:07.343Z,3.90
2019-04-20T11:00:45.919Z,3.67
2019-04-20T11:03:15.925Z,3.50
2019-04-20T11:05:44.906Z,3.40
2019-04-20T11:08:14.742Z,3.52
2019-04-20T11:10:55.546Z,3.40
2019-04-20T11:13:15.065Z,3.67
2019-04-20T11:15:44.314Z,3.30
2019-04-20T11:18:13.378Z,3.85
2019-04-20T11:20:43.674Z,4.15
2019-04-20T11:23:12.161Z,3.80
2019-04-20T11:25:41.809Z,4.28
2019-04-20T11:28:10.781Z,3.87
2019-04-20T11:30:40.357Z,4.00
2019-04-20T11:33:11.918Z,4.08
2019-04-20T11:35:43.241Z,3.95
2019-04-20T11:38:13.811Z,3.77
2019-04-20T11:40:42.188Z,4.00
2019-04-20T11:43:11.479Z,4.00
2019-04-20T11:45:40.564Z,3.60
2019-04-20T11:48:09.619Z,4.28
2019-04-20T11:50:38.175Z,3.80
2019-04-20T11:53:06.491Z,4.22
2019-04-20T11:55:36.168Z,3.95
2019-04-20T11:58:05.884Z,3.60
2019-04-20T12:00:55.269Z,3.70
2019-04-20T12:03:44.504Z,3.50
2019-04-20T12:06:05.329Z,4.17
2019-04-20T12:08:36.007Z,3.20
2019-04-20T12:11:20.251Z,4.15
2019-04-20T12:13:34.607Z,3.80
2019-04-20T12:16:03.623Z,3.58
2019-04-20T12:18:32.004Z,3.37
2019-04-20T12:21:04.943Z,3.60
2019-04-20T12:23:34.434Z,3.60
2019-04-20T12:26:02.926Z,3.30
2019-04-20T12:28:31.604Z,3.90
2019-04-20T12:31:04.106Z,3.72
2019-04-20T12:33:34.478Z,4.50
2019-04-20T12:36:06.050Z,3.77
2019-04-20T12:38:34.913Z,4.53
2019-04-20T12:41:04.853Z,3.92
2019-04-20T12:43:35.925Z,3.90
2019-04-20T12:46:05.482Z,4.20
2019-04-20T12:48:34.026Z,4.03
2019-04-20T12:51:03.639Z,4.37
2019-04-20T12:53:32.818Z,3.92
2019-04-20T12:56:02.294Z,3.92
2019-04-20T12:58:30.995Z,8.65
2019-04-20T13:01:00.510Z,8.00
2019-04-20T13:03:29.829Z,5.22
2019-04-20T13:05:58.849Z,4.00
2019-04-20T13:08:34.641Z,3.90
2019-04-20T13:11:22.548Z,4.25
2019-04-20T13:14:28.531Z,4.67
2019-04-20T13:17:06.256Z,5.80
2019-04-20T13:19:35.393Z,3.80
2019-04-20T13:22:05.256Z,3.70
2019-04-20T13:24:34.796Z,3.83
2019-04-20T13:27:03.289Z,7.72
2019-04-20T13:29:33.113Z,5.70
2019-04-20T13:32:02.121Z,3.90
2019-04-20T13:34:31.990Z,4.22
2019-04-20T13:37:00.521Z,3.80
2019-04-20T13:39:29.012Z,4.00
2019-04-20T13:42:08.057Z,4.00
2019-04-20T13:44:27.822Z,3.90
2019-04-20T13:46:56.724Z,4.62
2019-04-20T13:49:25.264Z,4.15
2019-04-20T13:51:55.142Z,4.47
2019-04-20T13:54:27.939Z,4.25
2019-04-20T13:56:56.603Z,5.20
2019-04-20T13:59:39.924Z,4.87
2019-04-20T14:02:26.720Z,4.00
2019-04-20T14:05:00.908Z,4.70
2019-04-20T14:07:31.443Z,4.78
2019-04-20T14:10:01.279Z,4.80
2019-04-20T14:12:36.711Z,4.37
2019-04-20T14:15:01.304Z,4.53
2019-04-20T14:17:34.980Z,4.55
2019-04-20T14:20:11.859Z,4.10
2019-04-20T14:22:34.646Z,4.28
2019-04-20T14:25:04.922Z,3.87
2019-04-20T14:27:34.889Z,4.00
2019-04-20T14:30:06.759Z,4.10
2019-04-20T14:32:36.806Z,3.83
2019-04-20T14:35:07.126Z,4.35
2019-04-20T14:37:36.721Z,4.25
2019-04-20T14:40:06.206Z,4.45
2019-04-20T14:42:44.067Z,4.10
2019-04-20T14:45:08.941Z,4.22
2019-04-20T14:47:39.688Z,4.28
2019-04-20T14:50:09.792Z,5.33
2019-04-20T14:52:39.682Z,4.53
2019-04-20T14:55:15.705Z,4.00
2019-04-20T14:57:43.544Z,4.28
2019-04-20T15:00:37.376Z,4.28
2019-04-20T15:03:24.151Z,4.97
2019-04-20T15:05:59.631Z,4.30
2019-04-20T15:08:30.411Z,4.90
2019-04-20T15:10:59.338Z,5.12
2019-04-20T15:13:28.852Z,6.83
2019-04-20T15:15:58.913Z,5.97
2019-04-20T15:18:35.585Z,6.15
2019-04-20T15:21:05.875Z,4.22
2019-04-20T15:23:35.879Z,4.22
2019-04-20T15:26:06.645Z,4.65
2019-04-20T15:28:36.577Z,4.40
2019-04-20T15:31:06.000Z,4.28
2019-04-20T15:33:34.842Z,4.37
2019-04-20T15:36:04.303Z,4.70
2019-04-20T15:38:33.314Z,4.80
2019-04-20T15:41:03.000Z,4.63
2019-04-20T15:43:33.189Z,4.40
2019-04-20T15:46:03.288Z,4.90
2019-04-20T15:48:34.336Z,4.57
2019-04-20T15:51:03.693Z,5.73
2019-04-20T15:53:33.495Z,6.45
2019-04-20T15:56:05.894Z,9.53
2019-04-20T15:58:36.568Z,5.25
2019-04-20T16:01:08.286Z,4.80
2019-04-20T16:03:59.346Z,5.40
2019-04-20T16:06:29.559Z,5.72
2019-04-20T16:09:00.007Z,7.70
2019-04-20T16:11:28.872Z,5.80
2019-04-20T16:14:00.145Z,4.58
2019-04-20T16:16:30.094Z,6.15
2019-04-20T16:19:04.058Z,5.50
2019-04-20T16:21:33.955Z,5.73
2019-04-20T16:24:08.893Z,6.17
2019-04-20T16:26:45.133Z,5.53
2019-04-20T16:29:15.488Z,6.33
2019-04-20T16:31:47.232Z,5.63
2019-04-20T16:34:15.985Z,5.47
2019-04-20T16:36:44.782Z,5.20
2019-04-20T16:39:14.433Z,5.70
2019-04-20T16:41:44.376Z,5.13
2019-04-20T16:44:13.507Z,5.17
2019-04-20T16:46:42.508Z,5.10
2019-04-20T16:49:11.094Z,5.40
2019-04-20T16:51:40.878Z,4.87
2019-04-20T16:54:11.919Z,5.50
2019-04-20T16:56:42.588Z,6.50
2019-04-20T16:59:13.747Z,7.33
2019-04-20T17:01:42.429Z,7.93
2019-04-20T17:04:15.477Z,6.60
2019-04-20T17:06:49.797Z,5.67
2019-04-20T17:09:19.772Z,5.60
2019-04-20T17:11:50.249Z,5.33
2019-04-20T17:14:19.149Z,5.23
2019-04-20T17:16:49.378Z,5.60
2019-04-20T17:19:19.636Z,5.57
2019-04-20T17:21:48.681Z,5.67
2019-04-20T17:24:17.559Z,5.37
2019-04-20T17:27:01.368Z,5.37
2019-04-20T17:29:38.801Z,5.87
2019-04-20T17:32:11.567Z,5.63
2019-04-20T17:34:59.202Z,5.33
2019-04-20T17:37:12.954Z,5.40
2019-04-20T17:40:06.759Z,5.70
2019-04-20T17:42:25.083Z,6.00
2019-04-20T17:44:55.575Z,5.27
2019-04-20T17:47:35.068Z,5.77
2019-04-20T17:50:05.254Z,6.20
2019-04-20T17:52:40.368Z,5.73
2019-04-20T17:54:55.694Z,5.97
2019-04-20T17:57:25.491Z,5.50
2019-04-20T18:00:05.358Z,5.70
2019-04-20T18:02:58.592Z,6.10
2019-04-20T18:05:54.635Z,5.53
2019-04-20T18:08:24.582Z,5.20
2019-04-20T18:10:41.466Z,5.30
2019-04-20T18:13:09.337Z,5.17
2019-04-20T18:15:45.479Z,5.27
2019-04-20T18:18:40.910Z,5.40
2019-04-20T18:21:06.480Z,5.17
2019-04-20T18:23:39.894Z,5.07
2019-04-20T18:26:27.230Z,5.13
2019-04-20T18:28:58.668Z,5.80
2019-04-20T18:31:35.502Z,5.90
2019-04-20T18:34:14.477Z,6.73
2019-04-20T18:36:42.920Z,4.97
2019-04-20T18:39:13.643Z,4.83
2019-04-20T18:41:48.362Z,4.93
2019-04-20T18:44:12.768Z,5.27
2019-04-20T18:47:07.012Z,4.90
2019-04-20T18:49:27.268Z,5.00
2019-04-20T18:51:46.064Z,5.13
2019-04-20T18:54:20.773Z,5.27
2019-04-20T18:56:48.922Z,5.50
2019-04-20T18:59:16.867Z,5.13
2019-04-20T19:01:46.753Z,5.47
2019-04-20T19:04:17.679Z,5.10
2019-04-20T19:06:47.861Z,4.67
2019-04-20T19:09:21.576Z,5.07
2019-04-20T19:11:55.815Z,4.63
2019-04-20T19:15:05.008Z,5.20
2019-04-20T19:18:11.569Z,5.77
2019-04-20T19:20:33.141Z,5.40
2019-04-20T19:23:02.196Z,7.23
2019-04-20T19:25:34.626Z,5.10
2019-04-20T19:28:03.345Z,4.63
2019-04-20T19:30:41.278Z,5.40
2019-04-20T19:33:19.116Z,4.60
2019-04-20T19:35:46.583Z,5.10
2019-04-20T19:38:14.878Z,4.37
2019-04-20T19:40:47.782Z,5.10
2019-04-20T19:43:15.739Z,4.43
2019-04-20T19:46:05.524Z,4.50
2019-04-20T19:48:24.104Z,4.50
2019-04-20T19:51:06.834Z,4.97
2019-04-20T19:53:31.878Z,4.83
2019-04-20T19:55:56.679Z,4.73
2019-04-20T19:58:28.231Z,4.50
2019-04-20T20:00:52.182Z,4.63
2019-04-20T20:03:21.822Z,4.43
2019-04-20T20:05:53.804Z,4.80
2019-04-20T20:08:25.952Z,4.67
2019-04-20T20:10:52.642Z,4.50
2019-04-20T20:13:27.374Z,4.40
2019-04-20T20:15:59.910Z,4.83
2019-04-20T20:18:41.115Z,4.90
2019-04-20T20:21:07.498Z,4.90
2019-04-20T20:23:25.865Z,4.87
2019-04-20T20:25:54.862Z,4.77
2019-04-20T20:28:33.568Z,4.90
2019-04-20T20:31:05.094Z,4.80
2019-04-20T20:33:41.179Z,4.70
2019-04-20T20:36:03.941Z,4.70
2019-04-20T20:38:35.251Z,4.67
2019-04-20T20:41:08.988Z,4.70
2019-04-20T20:43:42.357Z,4.53
2019-04-20T20:46:10.873Z,5.00
2019-04-20T20:48:45.550Z,4.70
2019-04-20T20:51:22.905Z,4.80
2019-04-20T20:53:49.873Z,4.77
2019-04-20T20:56:15.018Z,4.50
2019-04-20T20:58:48.451Z,5.00
2019-04-20T21:01:16.263Z,4.93
2019-04-20T21:03:44.220Z,5.73
2019-04-20T21:06:11.787Z,4.83
2019-04-20T21:08:45.870Z,5.90
2019-04-20T21:11:20.317Z,7.57
2019-04-20T21:13:47.295Z,6.60
2019-04-20T21:16:20.086Z,6.63
2019-04-20T21:19:01.072Z,6.70
2019-04-20T21:21:34.888Z,6.30
2019-04-20T21:24:06.628Z,7.03
2019-04-20T21:26:35.037Z,6.27
2019-04-20T21:29:01.878Z,6.13
2019-04-20T21:31:31.457Z,6.87
2019-04-20T21:34:10.371Z,6.90
2019-04-20T21:36:36.889Z,7.40
2019-04-20T21:39:15.362Z,5.87
2019-04-20T21:41:40.756Z,6.03
2019-04-20T21:44:18.305Z,5.63
2019-04-20T21:46:44.273Z,5.87
2019-04-20T21:49:23.709Z,6.07
2019-04-20T21:51:49.738Z,6.40
2019-04-20T21:54:16.110Z,6.30
2019-04-20T21:56:54.972Z,5.60
2019-04-20T21:59:24.083Z,6.03
2019-04-20T22:01:57.766Z,6.23
2019-04-20T22:04:20.986Z,6.20
2019-04-20T22:06:50.262Z,6.17
2019-04-20T22:09:25.106Z,5.97
2019-04-20T22:11:54.123Z,21.53
2019-04-20T22:14:26.541Z,7.63
2019-04-20T22:16:56.843Z,6.43
2019-04-20T22:19:36.640Z,6.57
2019-04-20T22:22:09.012Z,7.53
2019-04-20T22:24:42.160Z,7.00
2019-04-20T22:27:06.245Z,6.53
2019-04-20T22:29:28.487Z,6.63
2019-04-20T22:32:03.407Z,7.07
2019-04-20T22:34:29.700Z,7.00
2019-04-20T22:36:58.278Z,6.87
2019-04-20T22:39:39.367Z,6.60
2019-04-20T22:42:07.148Z,6.67
2019-04-20T22:44:34.044Z,6.80
2019-04-20T22:47:05.367Z,6.03
2019-04-20T22:49:50.075Z,6.33
2019-04-20T22:52:22.371Z,6.00
2019-04-20T22:54:48.886Z,6.97
2019-04-20T22:57:22.645Z,5.80
2019-04-20T22:59:46.072Z,5.60
2019-04-20T23:02:09.426Z,6.03
2019-04-20T23:04:39.125Z,5.67
2019-04-20T23:07:08.547Z,5.77
2019-04-20T23:09:43.477Z,7.67
2019-04-20T23:12:12.419Z,6.87
2019-04-20T23:14:38.573Z,7.80
2019-04-20T23:17:08.314Z,8.83
2019-04-20T23:19:46.655Z,8.03
2019-04-20T23:22:11.983Z,8.37
2019-04-20T23:24:39.365Z,8.20
2019-04-20T23:27:16.626Z,8.03
2019-04-20T23:29:41.459Z,7.70
2019-04-20T23:32:12.630Z,8.27
2019-04-20T23:34:40.940Z,7.30
2019-04-20T23:37:16.069Z,6.60
2019-04-20T23:39:42.958Z,7.27
2019-04-20T23:42:14.356Z,6.80
2019-04-20T23:45:16.920Z,6.17
2019-04-20T23:47:57.881Z,6.53
2019-04-20T23:50:40.865Z,6.47
2019-04-20T23:53:14.375Z,6.20
2019-04-20T23:55:27.658Z,5.97
2019-04-20T23:58:01.665Z,6.63
